sensor_id;sensor_type;location;lat;lon;timestamp;temperature;humidity
10530;DHT22;5313;48.834;9.228;2023-01-15T00:01:31;11.20;99.90
10530;DHT22;5313;48.834;9.228;2023-01-15T00:03:59;11.10;99.90
10530;DHT22;5313;48.834;9.228;2023-01-15T00:06:26;11.10;99.90
10530;DHT22;5313;48.834;9.228;2023-01-15T00:08:52;11.10;99.90
10530;DHT22;5313;48.834;9.228;2023-01-15T00:11:19;11.10;99.90
10530;DHT22;5313;48.834;9.228;2023-01-15T00:13:45;11.20;99.90
10530;DHT22;5313;48.834;9.228;2023-01-15T00:16:15;11.10;99.90
10530;DHT22;5313;48.834;9.228;2023-01-15T00:18:41;11.10;99.90
10530;DHT22;5313;48.834;9.228;2023-01-15T00:21:10;11.00;99.90
10530;DHT22;5313;48.834;9.228;2023-01-15T00:23:36;10.90;99.90
10530;DHT22;5313;48.834;9.228;2023-01-15T00:26:28;10.90;99.90
10530;DHT22;5313;48.834;9.228;2023-01-15T00:29:12;10.90;99.90
10530;DHT22;5313;48.834;9.228;2023-01-15T00:31:38;10.90;99.90
10530;DHT22;5313;48.834;9.228;2023-01-15T00:34:04;11.00;99.90
10530;DHT22;5313;48.834;9.228;2023-01-15T00:36:30;11.10;99.90
10530;DHT22;5313;48.834;9.228;2023-01-15T00:38:55;11.20;99.90
10530;DHT22;5313;48.834;9.228;2023-01-15T00:41:21;11.20;99.90
10530;DHT22;5313;48.834;9.228;2023-01-15T00:43:47;11.20;99.90
10530;DHT22;5313;48.834;9.228;2023-01-15T00:46:12;11.30;99.90
10530;DHT22;5313;48.834;9.228;2023-01-15T00:48:38;11.30;99.90
10530;DHT22;5313;48.834;9.228;2023-01-15T00:51:04;11.40;99.90
10530;DHT22;5313;48.834;9.228;2023-01-15T00:53:29;11.30;99.90
10530;DHT22;5313;48.834;9.228;2023-01-15T00:55:55;11.40;99.90
10530;DHT22;5313;48.834;9.228;2023-01-15T00:58:21;11.40;99.90
10530;DHT22;5313;48.834;9.228;2023-01-15T01:00:55;11.40;99.90
10530;DHT22;5313;48.834;9.228;2023-01-15T01:03:21;11.40;99.90
10530;DHT22;5313;48.834;9.228;2023-01-15T01:05:46;11.40;99.90
10530;DHT22;5313;48.834;9.228;2023-01-15T01:08:12;11.40;99.90
10530;DHT22;5313;48.834;9.228;2023-01-15T01:10:38;11.40;99.90
10530;DHT22;5313;48.834;9.228;2023-01-15T01:13:04;11.40;99.90
10530;DHT22;5313;48.834;9.228;2023-01-15T01:15:29;11.40;99.90
10530;DHT22;5313;48.834;9.228;2023-01-15T01:17:57;11.40;99.90
10530;DHT22;5313;48.834;9.228;2023-01-15T01:20:22;11.40;99.90
10530;DHT22;5313;48.834;9.228;2023-01-15T01:22:48;11.40;99.90
10530;DHT22;5313;48.834;9.228;2023-01-15T01:25:14;11.40;99.90
10530;DHT22;5313;48.834;9.228;2023-01-15T01:27:39;11.50;99.90
10530;DHT22;5313;48.834;9.228;2023-01-15T01:30:05;11.50;99.90
10530;DHT22;5313;48.834;9.228;2023-01-15T01:32:31;11.50;99.90
10530;DHT22;5313;48.834;9.228;2023-01-15T01:34:56;11.50;99.90
10530;DHT22;5313;48.834;9.228;2023-01-15T01:37:22;11.50;99.90
10530;DHT22;5313;48.834;9.228;2023-01-15T01:39:47;11.50;99.90
10530;DHT22;5313;48.834;9.228;2023-01-15T01:42:14;11.60;99.90
10530;DHT22;5313;48.834;9.228;2023-01-15T01:47:15;11.50;99.90
10530;DHT22;5313;48.834;9.228;2023-01-15T01:49:46;11.60;99.90
10530;DHT22;5313;48.834;9.228;2023-01-15T01:52:18;11.60;99.90
10530;DHT22;5313;48.834;9.228;2023-01-15T01:54:46;11.60;99.90
10530;DHT22;5313;48.834;9.228;2023-01-15T01:57:14;11.60;99.90
10530;DHT22;5313;48.834;9.228;2023-01-15T01:59:40;11.60;99.90
10530;DHT22;5313;48.834;9.228;2023-01-15T02:02:06;11.60;99.90
10530;DHT22;5313;48.834;9.228;2023-01-15T02:04:32;11.60;99.90
10530;DHT22;5313;48.834;9.228;2023-01-15T02:06:59;11.50;99.90
10530;DHT22;5313;48.834;9.228;2023-01-15T02:09:25;11.60;99.90
10530;DHT22;5313;48.834;9.228;2023-01-15T02:11:51;11.60;99.90
10530;DHT22;5313;48.834;9.228;2023-01-15T02:14:25;11.60;99.90
10530;DHT22;5313;48.834;9.228;2023-01-15T02:17:10;11.60;99.90
10530;DHT22;5313;48.834;9.228;2023-01-15T02:28:09;11.60;99.90
10530;DHT22;5313;48.834;9.228;2023-01-15T02:30:41;11.60;99.90
10530;DHT22;5313;48.834;9.228;2023-01-15T02:35:44;11.50;99.90
10530;DHT22;5313;48.834;9.228;2023-01-15T02:38:16;11.50;99.90
10530;DHT22;5313;48.834;9.228;2023-01-15T02:40:42;11.50;99.90
10530;DHT22;5313;48.834;9.228;2023-01-15T02:43:10;11.50;99.90
10530;DHT22;5313;48.834;9.228;2023-01-15T02:45:39;11.50;99.90
10530;DHT22;5313;48.834;9.228;2023-01-15T02:48:10;11.50;99.90
10530;DHT22;5313;48.834;9.228;2023-01-15T02:50:41;11.50;99.90
10530;DHT22;5313;48.834;9.228;2023-01-15T02:53:11;11.50;99.90
10530;DHT22;5313;48.834;9.228;2023-01-15T02:55:42;11.60;99.90
10530;DHT22;5313;48.834;9.228;2023-01-15T02:58:13;11.50;99.90
10530;DHT22;5313;48.834;9.228;2023-01-15T03:00:42;11.40;99.90
10530;DHT22;5313;48.834;9.228;2023-01-15T03:09:06;11.30;99.90
10530;DHT22;5313;48.834;9.228;2023-01-15T03:11:34;11.30;99.90
10530;DHT22;5313;48.834;9.228;2023-01-15T03:14:23;11.40;99.90
10530;DHT22;5313;48.834;9.228;2023-01-15T03:16:54;11.40;99.90
10530;DHT22;5313;48.834;9.228;2023-01-15T03:19:47;11.40;99.90
10530;DHT22;5313;48.834;9.228;2023-01-15T03:22:22;11.30;99.90
10530;DHT22;5313;48.834;9.228;2023-01-15T03:27:31;11.20;99.90
10530;DHT22;5313;48.834;9.228;2023-01-15T03:30:09;11.30;99.90
10530;DHT22;5313;48.834;9.228;2023-01-15T03:32:36;11.30;99.90
10530;DHT22;5313;48.834;9.228;2023-01-15T03:35:02;11.40;99.90
10530;DHT22;5313;48.834;9.228;2023-01-15T03:37:28;11.40;99.90
10530;DHT22;5313;48.834;9.228;2023-01-15T03:39:55;11.50;99.90
10530;DHT22;5313;48.834;9.228;2023-01-15T03:47:49;11.90;99.90
10530;DHT22;5313;48.834;9.228;2023-01-15T03:50:47;12.00;99.90
10530;DHT22;5313;48.834;9.228;2023-01-15T03:53:24;12.00;99.90
10530;DHT22;5313;48.834;9.228;2023-01-15T03:58:34;12.30;99.90
10530;DHT22;5313;48.834;9.228;2023-01-15T04:01:02;12.40;99.90
10530;DHT22;5313;48.834;9.228;2023-01-15T04:03:31;12.60;99.90
10530;DHT22;5313;48.834;9.228;2023-01-15T04:05:59;12.60;99.90
10530;DHT22;5313;48.834;9.228;2023-01-15T04:08:28;12.70;99.90
10530;DHT22;5313;48.834;9.228;2023-01-15T04:10:59;12.70;99.90
10530;DHT22;5313;48.834;9.228;2023-01-15T04:13:25;12.80;99.90
10530;DHT22;5313;48.834;9.228;2023-01-15T04:15:51;12.80;99.90
10530;DHT22;5313;48.834;9.228;2023-01-15T04:18:17;12.80;99.90
10530;DHT22;5313;48.834;9.228;2023-01-15T04:20:43;12.70;99.90
10530;DHT22;5313;48.834;9.228;2023-01-15T04:23:09;12.70;99.90
10530;DHT22;5313;48.834;9.228;2023-01-15T04:25:35;12.80;99.90
10530;DHT22;5313;48.834;9.228;2023-01-15T04:28:00;12.80;99.90
10530;DHT22;5313;48.834;9.228;2023-01-15T04:30:26;12.80;99.90
10530;DHT22;5313;48.834;9.228;2023-01-15T04:32:52;12.80;99.90
10530;DHT22;5313;48.834;9.228;2023-01-15T04:35:18;12.80;99.90
10530;DHT22;5313;48.834;9.228;2023-01-15T04:37:45;12.80;99.90
10530;DHT22;5313;48.834;9.228;2023-01-15T04:40:10;12.80;99.90
10530;DHT22;5313;48.834;9.228;2023-01-15T04:42:56;12.80;99.90
10530;DHT22;5313;48.834;9.228;2023-01-15T04:45:42;12.80;99.90
10530;DHT22;5313;48.834;9.228;2023-01-15T04:48:08;12.80;99.90
10530;DHT22;5313;48.834;9.228;2023-01-15T04:50:33;12.80;99.90
10530;DHT22;5313;48.834;9.228;2023-01-15T04:52:59;12.80;99.90
10530;DHT22;5313;48.834;9.228;2023-01-15T04:55:24;12.80;99.90
10530;DHT22;5313;48.834;9.228;2023-01-15T04:57:50;12.80;99.90
10530;DHT22;5313;48.834;9.228;2023-01-15T05:00:16;12.80;99.90
10530;DHT22;5313;48.834;9.228;2023-01-15T05:02:41;12.70;99.90
10530;DHT22;5313;48.834;9.228;2023-01-15T05:05:07;12.70;99.90
10530;DHT22;5313;48.834;9.228;2023-01-15T05:07:33;12.80;99.90
10530;DHT22;5313;48.834;9.228;2023-01-15T05:09:58;12.80;99.90
10530;DHT22;5313;48.834;9.228;2023-01-15T05:12:24;12.80;99.90
10530;DHT22;5313;48.834;9.228;2023-01-15T05:14:50;12.80;99.90
10530;DHT22;5313;48.834;9.228;2023-01-15T05:17:16;12.70;99.90
10530;DHT22;5313;48.834;9.228;2023-01-15T05:19:41;12.60;99.90
10530;DHT22;5313;48.834;9.228;2023-01-15T05:22:07;12.10;99.90
10530;DHT22;5313;48.834;9.228;2023-01-15T05:24:32;10.90;99.90
10530;DHT22;5313;48.834;9.228;2023-01-15T05:26:58;10.20;99.90
10530;DHT22;5313;48.834;9.228;2023-01-15T05:29:23;9.90;99.90
10530;DHT22;5313;48.834;9.228;2023-01-15T05:31:49;9.60;99.90
10530;DHT22;5313;48.834;9.228;2023-01-15T05:34:14;9.40;99.90
10530;DHT22;5313;48.834;9.228;2023-01-15T05:36:40;9.30;99.90
10530;DHT22;5313;48.834;9.228;2023-01-15T05:39:06;9.20;99.90
10530;DHT22;5313;48.834;9.228;2023-01-15T05:41:31;9.00;99.90
10530;DHT22;5313;48.834;9.228;2023-01-15T05:44:21;8.90;99.90
10530;DHT22;5313;48.834;9.228;2023-01-15T05:46:48;8.90;99.90
10530;DHT22;5313;48.834;9.228;2023-01-15T05:49:17;8.80;99.90
10530;DHT22;5313;48.834;9.228;2023-01-15T05:51:43;8.70;99.90
10530;DHT22;5313;48.834;9.228;2023-01-15T05:54:13;8.50;99.90
10530;DHT22;5313;48.834;9.228;2023-01-15T05:56:39;8.40;99.90
10530;DHT22;5313;48.834;9.228;2023-01-15T05:59:06;8.40;99.90
10530;DHT22;5313;48.834;9.228;2023-01-15T06:01:31;8.30;99.90
10530;DHT22;5313;48.834;9.228;2023-01-15T06:04:01;8.20;99.90
10530;DHT22;5313;48.834;9.228;2023-01-15T06:06:28;8.20;99.90
10530;DHT22;5313;48.834;9.228;2023-01-15T06:08:53;8.20;99.90
10530;DHT22;5313;48.834;9.228;2023-01-15T06:11:19;8.20;99.90
10530;DHT22;5313;48.834;9.228;2023-01-15T06:13:45;8.10;99.90
10530;DHT22;5313;48.834;9.228;2023-01-15T06:16:10;8.10;99.90
10530;DHT22;5313;48.834;9.228;2023-01-15T06:18:40;8.10;99.90
10530;DHT22;5313;48.834;9.228;2023-01-15T06:21:08;8.10;99.90
10530;DHT22;5313;48.834;9.228;2023-01-15T06:23:34;8.00;99.90
10530;DHT22;5313;48.834;9.228;2023-01-15T06:26:11;8.00;99.90
10530;DHT22;5313;48.834;9.228;2023-01-15T06:28:36;8.00;99.90
10530;DHT22;5313;48.834;9.228;2023-01-15T06:31:10;8.00;99.90
10530;DHT22;5313;48.834;9.228;2023-01-15T06:33:36;7.90;99.90
10530;DHT22;5313;48.834;9.228;2023-01-15T06:36:06;8.00;99.90
10530;DHT22;5313;48.834;9.228;2023-01-15T06:38:32;7.90;99.90
10530;DHT22;5313;48.834;9.228;2023-01-15T06:41:00;7.80;99.90
10530;DHT22;5313;48.834;9.228;2023-01-15T06:43:25;7.70;99.90
10530;DHT22;5313;48.834;9.228;2023-01-15T06:46:10;7.70;99.90
10530;DHT22;5313;48.834;9.228;2023-01-15T06:48:54;7.60;99.90
10530;DHT22;5313;48.834;9.228;2023-01-15T06:51:19;7.50;99.90
10530;DHT22;5313;48.834;9.228;2023-01-15T06:53:46;7.40;99.90
10530;DHT22;5313;48.834;9.228;2023-01-15T06:56:15;7.20;99.90
10530;DHT22;5313;48.834;9.228;2023-01-15T06:58:41;7.10;99.90
10530;DHT22;5313;48.834;9.228;2023-01-15T07:01:13;7.00;99.90
10530;DHT22;5313;48.834;9.228;2023-01-15T07:03:39;6.90;99.90
10530;DHT22;5313;48.834;9.228;2023-01-15T07:06:10;6.80;99.90
10530;DHT22;5313;48.834;9.228;2023-01-15T07:08:36;6.80;99.90
10530;DHT22;5313;48.834;9.228;2023-01-15T07:11:07;6.70;99.90
10530;DHT22;5313;48.834;9.228;2023-01-15T07:13:33;6.60;99.90
10530;DHT22;5313;48.834;9.228;2023-01-15T07:16:00;6.50;99.90
10530;DHT22;5313;48.834;9.228;2023-01-15T07:18:27;6.50;99.90
10530;DHT22;5313;48.834;9.228;2023-01-15T07:20:58;6.50;99.90
10530;DHT22;5313;48.834;9.228;2023-01-15T07:23:24;6.40;99.90
10530;DHT22;5313;48.834;9.228;2023-01-15T07:25:54;6.40;99.90
10530;DHT22;5313;48.834;9.228;2023-01-15T07:28:21;6.40;99.90
10530;DHT22;5313;48.834;9.228;2023-01-15T07:30:47;6.30;99.90
10530;DHT22;5313;48.834;9.228;2023-01-15T07:33:13;6.30;99.90
10530;DHT22;5313;48.834;9.228;2023-01-15T07:35:38;6.30;99.90
10530;DHT22;5313;48.834;9.228;2023-01-15T07:38:04;6.30;99.90
10530;DHT22;5313;48.834;9.228;2023-01-15T07:40:29;6.30;99.90
10530;DHT22;5313;48.834;9.228;2023-01-15T07:42:55;6.20;99.90
10530;DHT22;5313;48.834;9.228;2023-01-15T07:45:39;6.20;99.90
10530;DHT22;5313;48.834;9.228;2023-01-15T07:48:24;6.20;99.90
10530;DHT22;5313;48.834;9.228;2023-01-15T07:51:09;6.20;99.90
10530;DHT22;5313;48.834;9.228;2023-01-15T07:53:34;6.20;99.90
10530;DHT22;5313;48.834;9.228;2023-01-15T07:56:00;6.20;99.90
10530;DHT22;5313;48.834;9.228;2023-01-15T07:58:26;6.30;99.90
10530;DHT22;5313;48.834;9.228;2023-01-15T08:00:51;6.20;99.90
10530;DHT22;5313;48.834;9.228;2023-01-15T08:03:17;6.20;99.90
10530;DHT22;5313;48.834;9.228;2023-01-15T08:05:42;6.20;99.90
10530;DHT22;5313;48.834;9.228;2023-01-15T08:08:14;6.20;99.90
10530;DHT22;5313;48.834;9.228;2023-01-15T08:10:39;6.20;99.90
10530;DHT22;5313;48.834;9.228;2023-01-15T08:13:25;6.20;99.90
10530;DHT22;5313;48.834;9.228;2023-01-15T08:16:09;6.20;99.90
10530;DHT22;5313;48.834;9.228;2023-01-15T08:18:36;6.20;99.90
10530;DHT22;5313;48.834;9.228;2023-01-15T08:21:01;6.20;99.90
10530;DHT22;5313;48.834;9.228;2023-01-15T08:23:27;6.20;99.90
10530;DHT22;5313;48.834;9.228;2023-01-15T08:25:52;6.20;99.90
10530;DHT22;5313;48.834;9.228;2023-01-15T08:28:18;6.20;99.90
10530;DHT22;5313;48.834;9.228;2023-01-15T08:30:43;6.20;99.90
10530;DHT22;5313;48.834;9.228;2023-01-15T08:33:09;6.10;99.90
10530;DHT22;5313;48.834;9.228;2023-01-15T08:35:35;6.20;99.90
10530;DHT22;5313;48.834;9.228;2023-01-15T08:38:07;6.10;99.90
10530;DHT22;5313;48.834;9.228;2023-01-15T08:40:34;6.20;99.90
10530;DHT22;5313;48.834;9.228;2023-01-15T08:43:01;6.10;99.90
10530;DHT22;5313;48.834;9.228;2023-01-15T08:45:26;6.10;99.90
10530;DHT22;5313;48.834;9.228;2023-01-15T08:47:55;6.10;99.90
10530;DHT22;5313;48.834;9.228;2023-01-15T08:50:22;6.10;99.90
10530;DHT22;5313;48.834;9.228;2023-01-15T08:52:48;6.10;99.90
10530;DHT22;5313;48.834;9.228;2023-01-15T08:55:13;6.20;99.90
10530;DHT22;5313;48.834;9.228;2023-01-15T08:57:39;6.10;99.90
10530;DHT22;5313;48.834;9.228;2023-01-15T09:00:05;6.10;99.90
10530;DHT22;5313;48.834;9.228;2023-01-15T09:02:31;6.10;99.90
10530;DHT22;5313;48.834;9.228;2023-01-15T09:04:56;6.00;99.90
10530;DHT22;5313;48.834;9.228;2023-01-15T09:07:22;6.00;99.90
10530;DHT22;5313;48.834;9.228;2023-01-15T09:09:47;5.90;99.90
10530;DHT22;5313;48.834;9.228;2023-01-15T09:12:13;6.70;99.90
10530;DHT22;5313;48.834;9.228;2023-01-15T09:14:38;5.90;99.90
10530;DHT22;5313;48.834;9.228;2023-01-15T09:17:04;6.00;99.90
10530;DHT22;5313;48.834;9.228;2023-01-15T09:19:30;5.90;99.90
10530;DHT22;5313;48.834;9.228;2023-01-15T09:21:55;5.90;99.90
10530;DHT22;5313;48.834;9.228;2023-01-15T09:24:21;5.90;99.90
10530;DHT22;5313;48.834;9.228;2023-01-15T09:26:46;5.90;99.90
10530;DHT22;5313;48.834;9.228;2023-01-15T09:29:13;5.90;99.90
10530;DHT22;5313;48.834;9.228;2023-01-15T09:31:38;5.90;99.90
10530;DHT22;5313;48.834;9.228;2023-01-15T09:34:04;5.90;99.90
10530;DHT22;5313;48.834;9.228;2023-01-15T09:36:32;5.90;99.90
10530;DHT22;5313;48.834;9.228;2023-01-15T09:38:59;6.00;99.90
10530;DHT22;5313;48.834;9.228;2023-01-15T09:41:37;6.00;99.90
10530;DHT22;5313;48.834;9.228;2023-01-15T09:44:56;5.90;99.90
10530;DHT22;5313;48.834;9.228;2023-01-15T09:47:34;5.90;99.90
10530;DHT22;5313;48.834;9.228;2023-01-15T09:50:22;6.00;99.90
10530;DHT22;5313;48.834;9.228;2023-01-15T09:55:21;5.90;99.90
10530;DHT22;5313;48.834;9.228;2023-01-15T09:57:53;6.00;99.90
10530;DHT22;5313;48.834;9.228;2023-01-15T10:00:21;5.90;99.90
10530;DHT22;5313;48.834;9.228;2023-01-15T10:03:07;5.90;99.90
10530;DHT22;5313;48.834;9.228;2023-01-15T10:06:03;5.90;99.90
10530;DHT22;5313;48.834;9.228;2023-01-15T10:08:35;6.00;99.90
10530;DHT22;5313;48.834;9.228;2023-01-15T10:11:27;6.00;99.90
10530;DHT22;5313;48.834;9.228;2023-01-15T10:14:18;5.90;99.90
10530;DHT22;5313;48.834;9.228;2023-01-15T10:16:47;5.80;99.90
10530;DHT22;5313;48.834;9.228;2023-01-15T10:19:13;5.80;99.90
10530;DHT22;5313;48.834;9.228;2023-01-15T10:26:52;5.70;99.90
10530;DHT22;5313;48.834;9.228;2023-01-15T10:37:47;5.40;99.90
10530;DHT22;5313;48.834;9.228;2023-01-15T10:45:27;5.20;99.90
10530;DHT22;5313;48.834;9.228;2023-01-15T10:48:01;5.20;99.90
10530;DHT22;5313;48.834;9.228;2023-01-15T10:50:29;5.10;99.90
10530;DHT22;5313;48.834;9.228;2023-01-15T10:53:44;5.00;99.90
10530;DHT22;5313;48.834;9.228;2023-01-15T10:58:56;4.90;99.90
10530;DHT22;5313;48.834;9.228;2023-01-15T11:01:24;4.80;99.90
10530;DHT22;5313;48.834;9.228;2023-01-15T11:03:51;4.70;99.90
10530;DHT22;5313;48.834;9.228;2023-01-15T11:06:20;4.60;99.90
10530;DHT22;5313;48.834;9.228;2023-01-15T11:08:56;4.60;99.90
10530;DHT22;5313;48.834;9.228;2023-01-15T11:11:30;4.70;99.90
10530;DHT22;5313;48.834;9.228;2023-01-15T11:14:15;4.70;99.90
10530;DHT22;5313;48.834;9.228;2023-01-15T11:17:00;4.70;99.90
10530;DHT22;5313;48.834;9.228;2023-01-15T11:19:36;4.60;99.90
10530;DHT22;5313;48.834;9.228;2023-01-15T11:22:11;4.60;99.90
10530;DHT22;5313;48.834;9.228;2023-01-15T11:24:54;4.50;99.90
10530;DHT22;5313;48.834;9.228;2023-01-15T11:27:23;4.40;99.90
10530;DHT22;5313;48.834;9.228;2023-01-15T11:29:55;4.40;99.90
10530;DHT22;5313;48.834;9.228;2023-01-15T11:32:31;4.30;99.90
10530;DHT22;5313;48.834;9.228;2023-01-15T11:35:00;4.40;99.90
10530;DHT22;5313;48.834;9.228;2023-01-15T11:37:26;4.40;99.90
10530;DHT22;5313;48.834;9.228;2023-01-15T11:39:54;4.30;99.90
10530;DHT22;5313;48.834;9.228;2023-01-15T11:42:20;4.20;99.90
10530;DHT22;5313;48.834;9.228;2023-01-15T11:45:13;4.20;99.90
10530;DHT22;5313;48.834;9.228;2023-01-15T11:47:57;4.20;99.90
10530;DHT22;5313;48.834;9.228;2023-01-15T11:51:06;4.20;99.90
10530;DHT22;5313;48.834;9.228;2023-01-15T11:53:37;4.10;99.90
10530;DHT22;5313;48.834;9.228;2023-01-15T11:56:05;4.10;99.90
10530;DHT22;5313;48.834;9.228;2023-01-15T11:58:39;4.10;99.90
10530;DHT22;5313;48.834;9.228;2023-01-15T12:01:05;4.10;99.90
10530;DHT22;5313;48.834;9.228;2023-01-15T12:03:33;4.20;99.90
10530;DHT22;5313;48.834;9.228;2023-01-15T12:06:02;4.30;99.90
10530;DHT22;5313;48.834;9.228;2023-01-15T12:08:38;4.30;99.90
10530;DHT22;5313;48.834;9.228;2023-01-15T12:11:48;4.30;99.90
10530;DHT22;5313;48.834;9.228;2023-01-15T12:14:30;4.40;99.90
10530;DHT22;5313;48.834;9.228;2023-01-15T12:19:42;4.40;99.90
10530;DHT22;5313;48.834;9.228;2023-01-15T12:22:38;4.50;99.90
10530;DHT22;5313;48.834;9.228;2023-01-15T12:25:29;4.50;99.90
10530;DHT22;5313;48.834;9.228;2023-01-15T12:28:09;4.50;99.90
10530;DHT22;5313;48.834;9.228;2023-01-15T12:31:06;4.50;99.90
10530;DHT22;5313;48.834;9.228;2023-01-15T12:33:52;4.50;99.90
10530;DHT22;5313;48.834;9.228;2023-01-15T12:36:30;4.60;99.90
10530;DHT22;5313;48.834;9.228;2023-01-15T12:41:38;4.60;99.90
10530;DHT22;5313;48.834;9.228;2023-01-15T12:44:34;4.60;99.90
10530;DHT22;5313;48.834;9.228;2023-01-15T12:47:23;4.70;99.90
10530;DHT22;5313;48.834;9.228;2023-01-15T12:49:55;4.70;99.90
10530;DHT22;5313;48.834;9.228;2023-01-15T12:52:27;4.80;99.90
10530;DHT22;5313;48.834;9.228;2023-01-15T12:55:08;4.80;99.90
10530;DHT22;5313;48.834;9.228;2023-01-15T12:57:42;4.80;99.90
10530;DHT22;5313;48.834;9.228;2023-01-15T13:05:29;5.00;99.90
10530;DHT22;5313;48.834;9.228;2023-01-15T13:10:58;5.10;99.90
10530;DHT22;5313;48.834;9.228;2023-01-15T13:13:37;5.00;99.90
10530;DHT22;5313;48.834;9.228;2023-01-15T13:16:21;5.00;99.90
10530;DHT22;5313;48.834;9.228;2023-01-15T13:19:09;5.10;99.90
10530;DHT22;5313;48.834;9.228;2023-01-15T13:21:39;5.10;99.90
10530;DHT22;5313;48.834;9.228;2023-01-15T13:24:27;5.20;99.90
10530;DHT22;5313;48.834;9.228;2023-01-15T13:30:25;5.20;99.90
10530;DHT22;5313;48.834;9.228;2023-01-15T13:32:45;5.20;99.90
10530;DHT22;5313;48.834;9.228;2023-01-15T13:37:53;5.20;99.90
10530;DHT22;5313;48.834;9.228;2023-01-15T13:40:32;5.20;99.90
10530;DHT22;5313;48.834;9.228;2023-01-15T13:43:00;5.30;99.90
10530;DHT22;5313;48.834;9.228;2023-01-15T13:50:33;5.70;99.90
10530;DHT22;5313;48.834;9.228;2023-01-15T13:53:06;5.70;99.90
10530;DHT22;5313;48.834;9.228;2023-01-15T13:55:36;5.70;99.90
10530;DHT22;5313;48.834;9.228;2023-01-15T13:58:16;6.10;99.90
10530;DHT22;5313;48.834;9.228;2023-01-15T14:00:44;6.50;99.90
10530;DHT22;5313;48.834;9.228;2023-01-15T14:03:28;6.50;99.90
10530;DHT22;5313;48.834;9.228;2023-01-15T14:06:07;7.00;99.90
10530;DHT22;5313;48.834;9.228;2023-01-15T14:08:43;6.70;99.90
10530;DHT22;5313;48.834;9.228;2023-01-15T14:11:33;6.50;99.90
10530;DHT22;5313;48.834;9.228;2023-01-15T14:17:10;6.40;99.90
10530;DHT22;5313;48.834;9.228;2023-01-15T14:20:10;6.50;99.90
10530;DHT22;5313;48.834;9.228;2023-01-15T14:25:58;6.50;99.90
10530;DHT22;5313;48.834;9.228;2023-01-15T14:29:43;6.60;99.90
10530;DHT22;5313;48.834;9.228;2023-01-15T14:34:35;6.70;99.90
10530;DHT22;5313;48.834;9.228;2023-01-15T14:37:04;6.70;99.90
10530;DHT22;5313;48.834;9.228;2023-01-15T14:39:50;6.60;99.90
10530;DHT22;5313;48.834;9.228;2023-01-15T14:47:55;6.50;99.90
10530;DHT22;5313;48.834;9.228;2023-01-15T14:52:49;6.50;99.90
10530;DHT22;5313;48.834;9.228;2023-01-15T14:55:16;6.50;99.90
10530;DHT22;5313;48.834;9.228;2023-01-15T14:57:46;6.40;99.90
10530;DHT22;5313;48.834;9.228;2023-01-15T15:00:17;6.40;99.90
10530;DHT22;5313;48.834;9.228;2023-01-15T15:02:46;6.30;99.90
10530;DHT22;5313;48.834;9.228;2023-01-15T15:05:15;6.30;99.90
10530;DHT22;5313;48.834;9.228;2023-01-15T15:07:44;6.30;99.90
10530;DHT22;5313;48.834;9.228;2023-01-15T15:10:39;6.20;99.90
10530;DHT22;5313;48.834;9.228;2023-01-15T15:16:07;6.20;99.90
10530;DHT22;5313;48.834;9.228;2023-01-15T15:19:17;6.20;99.90
10530;DHT22;5313;48.834;9.228;2023-01-15T15:21:47;6.10;99.90
10530;DHT22;5313;48.834;9.228;2023-01-15T15:24:20;6.10;99.90
10530;DHT22;5313;48.834;9.228;2023-01-15T15:26:47;6.00;99.90
10530;DHT22;5313;48.834;9.228;2023-01-15T15:29:14;6.00;99.90
10530;DHT22;5313;48.834;9.228;2023-01-15T15:31:43;6.00;99.90
10530;DHT22;5313;48.834;9.228;2023-01-15T15:34:33;6.00;99.90
10530;DHT22;5313;48.834;9.228;2023-01-15T15:37:14;5.90;99.90
10530;DHT22;5313;48.834;9.228;2023-01-15T15:42:21;5.90;99.90
10530;DHT22;5313;48.834;9.228;2023-01-15T15:48:30;5.80;99.90
10530;DHT22;5313;48.834;9.228;2023-01-15T15:54:11;5.70;99.90
10530;DHT22;5313;48.834;9.228;2023-01-15T15:56:38;5.70;99.90
10530;DHT22;5313;48.834;9.228;2023-01-15T15:59:05;5.60;99.90
10530;DHT22;5313;48.834;9.228;2023-01-15T16:01:37;5.60;99.90
10530;DHT22;5313;48.834;9.228;2023-01-15T16:04:03;5.60;99.90
10530;DHT22;5313;48.834;9.228;2023-01-15T16:06:29;5.60;99.90
10530;DHT22;5313;48.834;9.228;2023-01-15T16:08:56;5.60;99.90
10530;DHT22;5313;48.834;9.228;2023-01-15T16:11:29;5.60;99.90
10530;DHT22;5313;48.834;9.228;2023-01-15T16:13:57;5.60;99.90
10530;DHT22;5313;48.834;9.228;2023-01-15T16:16:26;5.50;99.90
10530;DHT22;5313;48.834;9.228;2023-01-15T16:18:56;5.50;99.90
10530;DHT22;5313;48.834;9.228;2023-01-15T16:21:33;5.50;99.90
10530;DHT22;5313;48.834;9.228;2023-01-15T16:24:04;5.50;99.90
10530;DHT22;5313;48.834;9.228;2023-01-15T16:26:37;5.40;99.90
10530;DHT22;5313;48.834;9.228;2023-01-15T16:29:12;5.40;99.90
10530;DHT22;5313;48.834;9.228;2023-01-15T16:31:40;5.40;99.90
10530;DHT22;5313;48.834;9.228;2023-01-15T16:34:05;5.40;99.90
10530;DHT22;5313;48.834;9.228;2023-01-15T16:36:39;5.40;99.90
10530;DHT22;5313;48.834;9.228;2023-01-15T16:39:06;5.30;99.90
10530;DHT22;5313;48.834;9.228;2023-01-15T16:41:40;5.30;99.90
10530;DHT22;5313;48.834;9.228;2023-01-15T16:44:06;5.20;99.90
10530;DHT22;5313;48.834;9.228;2023-01-15T16:46:41;5.20;99.90
10530;DHT22;5313;48.834;9.228;2023-01-15T16:51:53;5.20;99.90
10530;DHT22;5313;48.834;9.228;2023-01-15T16:57:04;5.00;99.90
10530;DHT22;5313;48.834;9.228;2023-01-15T16:59:54;5.00;99.90
10530;DHT22;5313;48.834;9.228;2023-01-15T17:02:20;5.00;99.90
10530;DHT22;5313;48.834;9.228;2023-01-15T17:04:47;5.00;99.90
10530;DHT22;5313;48.834;9.228;2023-01-15T17:09:43;5.00;99.90
10530;DHT22;5313;48.834;9.228;2023-01-15T17:12:28;5.00;99.90
10530;DHT22;5313;48.834;9.228;2023-01-15T17:17:43;5.00;99.90
10530;DHT22;5313;48.834;9.228;2023-01-15T17:20:10;4.90;99.90
10530;DHT22;5313;48.834;9.228;2023-01-15T17:22:43;4.90;99.90
10530;DHT22;5313;48.834;9.228;2023-01-15T17:27:50;4.80;99.90
10530;DHT22;5313;48.834;9.228;2023-01-15T17:30:17;4.90;99.90
10530;DHT22;5313;48.834;9.228;2023-01-15T17:32:44;4.90;99.90
10530;DHT22;5313;48.834;9.228;2023-01-15T17:35:31;4.90;99.90
10530;DHT22;5313;48.834;9.228;2023-01-15T17:37:57;4.90;99.90
10530;DHT22;5313;48.834;9.228;2023-01-15T17:40:23;4.80;99.90
10530;DHT22;5313;48.834;9.228;2023-01-15T17:42:48;4.80;99.90
10530;DHT22;5313;48.834;9.228;2023-01-15T17:45:19;4.80;99.90
10530;DHT22;5313;48.834;9.228;2023-01-15T17:47:45;4.70;99.90
10530;DHT22;5313;48.834;9.228;2023-01-15T17:50:11;4.70;99.90
10530;DHT22;5313;48.834;9.228;2023-01-15T17:52:37;4.80;99.90
10530;DHT22;5313;48.834;9.228;2023-01-15T17:55:03;4.70;99.90
10530;DHT22;5313;48.834;9.228;2023-01-15T17:57:47;4.70;99.90
10530;DHT22;5313;48.834;9.228;2023-01-15T18:00:32;4.70;99.90
10530;DHT22;5313;48.834;9.228;2023-01-15T18:03:19;4.60;99.90
10530;DHT22;5313;48.834;9.228;2023-01-15T18:06:05;4.60;99.90
10530;DHT22;5313;48.834;9.228;2023-01-15T18:08:31;4.60;99.90
10530;DHT22;5313;48.834;9.228;2023-01-15T18:10:58;4.60;99.90
10530;DHT22;5313;48.834;9.228;2023-01-15T18:13:23;4.50;99.90
10530;DHT22;5313;48.834;9.228;2023-01-15T18:15:49;4.50;99.90
10530;DHT22;5313;48.834;9.228;2023-01-15T18:18:15;4.40;99.90
10530;DHT22;5313;48.834;9.228;2023-01-15T18:20:41;4.50;99.90
10530;DHT22;5313;48.834;9.228;2023-01-15T18:23:06;4.40;99.90
10530;DHT22;5313;48.834;9.228;2023-01-15T18:25:34;4.40;99.90